Data for 03/16/2013

Time Sea-Level Adjusted Pressure Absolute Pressure Temperature Relative Humidity Dew Point   
(mb) (inHg) (mb) (inHg) (C) (F) (%) (C) (F)
00:05 1018 30.06 847 25.01 3.4 38.1 58 -4.1 24.6
00:10 1018 30.06 847 25.01 3.4 38 58 -4.2 24.5
00:15 1018 30.06 847 25.01 3.1 37.6 59 -4.1 24.6
00:20 1018 30.06 847 25.01 2.9 37.2 60 -4.2 24.4
00:25 1018 30.06 847 25.01 2.8 37 60 -4.2 24.4
00:30 1018 30.06 847 25.01 2.7 36.8 60 -4.3 24.3
00:35 1018 30.06 847 25.01 2.7 36.9 60 -4.3 24.2
00:40 1018 30.06 847 25.01 2.7 36.9 60 -4.3 24.2
00:45 1018 30.06 847 25.01 3 37.3 57 -4.6 23.7
00:50 1018 30.06 847 25.01 3.3 37.9 56 -4.6 23.7
00:55 1018 30.06 847 25.01 3.4 38.1 57 -4.4 24.2
01:00 1018 30.06 847 25.01 3.2 37.8 58 -4.2 24.5
01:05 1018 30.06 847 25.01 3 37.4 58 -4.4 24.1
01:10 1018 30.06 847 25.01 2.9 37.3 59 -4.2 24.4
01:15 1018 30.06 847 25.01 2.8 37 60 -4.2 24.5
01:20 1018 30.06 847 25.01 2.6 36.7 61 -4.2 24.5
01:25 1018 30.06 847 25.01 2.4 36.3 61 -4.4 24.1
01:30 1018 30.06 847 25.01 2.7 36.8 59 -4.4 24
01:35 1018 30.06 847 25.01 3 37.4 57 -4.7 23.6
01:40 1018 30.06 847 25.01 3.1 37.7 57 -4.5 23.9
01:45 1018 30.06 847 25.01 3 37.5 57 -4.6 23.8
01:50 1018 30.06 847 25.01 2.9 37.3 60 -4.1 24.6
01:55 1018 30.06 847 25.01 2.2 36 63 -4 24.8
02:00 1018 30.06 847 25.01 1.4 34.6 66 -4.3 24.3
02:05 1018 30.06 847 25.01 1.8 35.2 63 -4.5 23.8
02:10 1018 30.06 847 25.01 1.8 35.3 63 -4.4 24.1
02:15 1017 30.03 847 25.01 1.7 35 65 -4.3 24.3
02:20 1017 30.03 847 25.01 1.5 34.6 66 -4.3 24.3
02:25 1017 30.03 847 25.01 1.3 34.3 67 -4.2 24.4
02:30 1017 30.03 846 24.98 1.1 34.1 67 -4.3 24.2
02:35 1017 30.03 846 24.98 1.2 34.2 66 -4.4 24.2
02:40 1017 30.03 846 24.98 1.4 34.6 64 -4.6 23.8
02:45 1017 30.03 846 24.98 1.9 35.4 62 -4.5 23.8
02:50 1017 30.03 846 24.98 2.1 35.8 62 -4.3 24.2
02:55 1017 30.03 846 24.98 2.2 35.9 63 -4.2 24.4
03:00 1017 30.03 846 24.98 2 35.5 63 -4.3 24.2
03:05 1017 30.03 846 24.98 1.8 35.2 64 -4.2 24.4
03:10 1017 30.03 846 24.98 1.5 34.7 65 -4.4 24.2
03:15 1017 30.03 846 24.98 1.5 34.7 65 -4.4 24.2
03:20 1017 30.03 846 24.98 1.5 34.6 66 -4.3 24.3
03:25 1017 30.03 846 24.98 1.5 34.7 66 -4.2 24.5
03:30 1017 30.03 846 24.98 1.5 34.7 66 -4.2 24.4
03:35 1017 30.03 846 24.98 1.5 34.7 66 -4.3 24.3
03:40 1017 30.03 846 24.98 1.2 34.2 68 -4.1 24.7
03:45 1017 30.03 846 24.98 1 33.9 67 -4.5 24
03:50 1017 30.03 846 24.98 1.2 34.2 66 -4.4 24.2
03:55 1016 30 846 24.98 1.2 34.1 67 -4.3 24.3
04:00 1016 30 846 24.98 1.1 34 67 -4.4 24.1
04:05 1016 30 846 24.98 1 33.8 67 -4.3 24.2
04:10 1016 30 846 24.98 0.9 33.7 68 -4.3 24.3
04:15 1016 30 846 24.98 0.8 33.4 69 -4.3 24.2
04:20 1016 30 846 24.98 0.9 33.6 67 -4.6 23.8
04:25 1016 30 846 24.98 1.1 33.9 67 -4.5 23.9
04:30 1016 30 846 24.98 1.1 33.9 66 -4.5 23.9
04:35 1016 30 846 24.98 1.2 34.1 65 -4.6 23.7
04:40 1016 30 846 24.98 1.3 34.4 65 -4.6 23.7
04:45 1016 30 845 24.95 1.4 34.6 64 -4.7 23.6
04:50 1016 30 846 24.98 1.6 34.9 63 -4.7 23.6
04:55 1016 30 846 24.98 1.6 34.9 63 -4.7 23.5
05:00 1016 30 846 24.98 1.6 34.8 64 -4.4 24.1
05:05 1016 30 846 24.98 1.3 34.4 63 -4.9 23.2
05:10 1016 30 846 24.98 1.6 34.8 62 -4.8 23.3
05:15 1016 30 846 24.98 1.6 34.8 63 -4.8 23.3
05:20 1016 30 846 24.98 1.5 34.7 63 -4.8 23.4
05:25 1016 30 846 24.98 1.3 34.3 65 -4.5 23.8
05:30 1016 30 846 24.98 0.9 33.7 66 -4.7 23.6
05:35 1016 30 845 24.95 0.9 33.5 66 -4.8 23.4
05:40 1016 30 845 24.95 0.7 33.2 67 -4.8 23.4
05:45 1016 30 845 24.95 0.8 33.4 65 -5.1 22.9
05:50 1016 30 845 24.95 0.9 33.6 65 -5 23.1
05:55 1016 30 845 24.95 0.8 33.5 67 -4.7 23.5
06:00 1016 30 845 24.95 0.8 33.4 66 -5 23.1
06:05 1016 30 845 24.95 1 33.8 64 -5 23
06:10 1016 30 845 24.95 1 33.8 65 -4.8 23.4
06:15 1016 30 845 24.95 0.7 33.3 66 -4.9 23.3
06:20 1016 30 845 24.95 0.8 33.4 65 -5 23
06:25 1016 30 845 24.95 0.7 33.3 66 -4.9 23.3
06:30 1016 30 845 24.95 0.3 32.6 68 -4.9 23.2
06:35 1016 30 845 24.95 0.3 32.5 66 -5.3 22.4
06:40 1016 30 845 24.95 0.7 33.3 65 -5.1 22.8
06:45 1016 30 845 24.95 0.5 32.9 66 -5.1 22.7
06:50 1016 30 845 24.95 0.5 32.9 65 -5.3 22.5
06:55 1016 30 845 24.95 0.6 33 65 -5.2 22.6
07:00 1016 30 845 24.95 0.5 32.8 67 -5 22.9
07:05 1016 30 845 24.95 0.2 32.3 67 -5.2 22.6
07:10 1016 30 845 24.95 0.5 32.9 65 -5.4 22.3
07:15 1016 30 845 24.95 0.8 33.4 64 -5.3 22.4
07:20 1016 30 845 24.95 0.7 33.3 64 -5.2 22.6
07:25 1016 30 845 24.95 0.8 33.4 64 -5.2 22.6
07:30 1016 30 845 24.95 1 33.8 63 -5.2 22.7
07:35 1016 30 845 24.95 1.2 34.1 62 -5.2 22.6
07:40 1016 30 845 24.95 1.4 34.5 63 -5 23.1
07:45 1016 30 845 24.95 1.1 34 63 -5.1 22.8
07:50 1016 30 845 24.95 1.2 34.2 62 -5.3 22.5
07:55 1016 30 845 24.95 1.6 34.8 61 -5.1 22.9
08:00 1016 30 845 24.95 1.8 35.3 61 -4.9 23.2
08:05 1016 30 845 24.95 2.4 36.3 59 -4.8 23.4
08:10 1016 30 845 24.95 2.9 37.1 57 -4.8 23.4
08:15 1016 30 845 24.95 3.3 38 55 -4.9 23.2
08:20 1016 30 845 24.95 3.4 38.2 54 -5 22.9
08:25 1016 30 845 24.95 4 39.2 51 -5.3 22.5
08:30 1016 30 845 24.95 4.5 40.1 51 -4.7 23.5
08:35 1016 30 845 24.95 4.4 39.9 52 -4.6 23.6
08:40 1016 30 845 24.95 4.4 39.8 51 -4.8 23.3
08:45 1016 30 845 24.95 4.4 40 51 -4.7 23.5
08:50 1016 30 845 24.95 4.4 39.8 52 -4.6 23.7
08:55 1016 30 845 24.95 4.5 40 50 -5 23.1
09:00 1016 30 845 24.95 4.6 40.3 49 -5.2 22.6
09:05 1016 30 845 24.95 5 41 48 -5.1 22.8
09:10 1015 29.97 845 24.95 5.4 41.6 47 -5.2 22.7
09:15 1016 30 845 24.95 5.7 42.3 44 -5.5 22.2
09:20 1016 30 845 24.95 6 42.9 44 -5.3 22.5
09:25 1016 30 845 24.95 6.3 43.3 44 -5 23
09:30 1016 30 845 24.95 6.7 44.1 41 -5.5 22.1
09:35 1016 30 845 24.95 7.5 45.5 40 -5.2 22.6
09:40 1016 30 845 24.95 8 46.3 39 -5.3 22.5
09:45 1016 30 845 24.95 8.2 46.8 39 -4.8 23.3
09:50 1016 30 845 24.95 8.3 47 37 -5.4 22.3
09:55 1016 30 845 24.95 8.5 47.2 38 -5.1 22.9
10:00 1016 30 845 24.95 8.7 47.7 36 -5.6 21.9
10:05 1016 30 845 24.95 8.8 47.9 38 -4.8 23.3
10:10 1016 30 845 24.95 8.2 46.8 39 -5 22.9
10:15 1016 30 845 24.95 8.2 46.8 38 -5.2 22.6
10:20 1016 30 845 24.95 8.4 47.2 39 -4.8 23.4
10:25 1016 30 845 24.95 8.1 46.5 39 -4.9 23.1
10:30 1016 30 845 24.95 8.2 46.7 39 -5.1 22.9
10:35 1016 30 845 24.95 8.1 46.7 38 -5.5 22.2
10:40 1016 30 845 24.95 8.6 47.5 38 -5 22.9
10:45 1015 29.97 845 24.95 8.6 47.5 36 -5.4 22.2
10:50 1015 29.97 845 24.95 8.9 47.9 35 -5.7 21.8
10:55 1015 29.97 845 24.95 9 48.2 37 -5.1 22.9
11:00 1015 29.97 845 24.95 9.2 48.6 34 -5.7 21.8
11:05 1015 29.97 844 24.92 9.7 49.5 33 -5.8 21.6
11:10 1015 29.97 844 24.92 9.2 48.6 31 -6.8 19.7
11:15 1015 29.97 844 24.92 9.1 48.3 33 -6.3 20.7
11:20 1015 29.97 844 24.92 8.9 48 32 -7.1 19.3
11:25 1015 29.97 844 24.92 9.1 48.4 33 -6.4 20.5
11:30 1015 29.97 844 24.92 9.2 48.5 33 -6.4 20.6
11:35 1015 29.97 844 24.92 8.7 47.6 34 -6.4 20.5
11:40 1015 29.97 844 24.92 9.2 48.5 33 -6.4 20.4
11:45 1015 29.97 844 24.92 9.7 49.4 33 -5.9 21.4
11:50 1015 29.97 844 24.92 8.8 47.9 34 -6.1 21.1
11:55 1015 29.97 844 24.92 8.2 46.8 36 -6 21.2
12:00 1015 29.97 844 24.92 9.1 48.3 34 -5.9 21.4
12:05 1015 29.97 844 24.92 9.2 48.5 33 -6.1 21
12:10 1015 29.97 844 24.92 9.2 48.5 33 -6 21.1
12:15 1015 29.97 844 24.92 9.2 48.6 33 -6.1 21
12:20 1015 29.97 844 24.92 9.7 49.4 33 -5.9 21.4
12:25 1014 29.94 844 24.92 9.6 49.3 32 -6.2 20.9
12:30 1014 29.94 844 24.92 9.8 49.6 32 -6.1 21
12:35 1014 29.94 843 24.89 10 50 32 -6.1 21.1
12:40 1014 29.94 843 24.89 9.7 49.4 33 -5.9 21.3
12:45 1014 29.94 843 24.89 9.8 49.7 31 -6.4 20.4
12:50 1014 29.94 843 24.89 10.4 50.7 30 -6.4 20.5
12:55 1014 29.94 843 24.89 10.2 50.3 30 -6.4 20.4
13:00 1014 29.94 843 24.89 10.2 50.4 30 -6.4 20.4
13:05 1014 29.94 843 24.89 10.2 50.4 30 -6.7 20
13:10 1014 29.94 843 24.89 10.2 50.3 29 -7 19.4
13:15 1013 29.91 843 24.89 10.1 50.2 30 -6.7 19.9
13:20 1013 29.91 843 24.89 10 50 30 -6.9 19.6
13:25 1013 29.91 842 24.86 9.8 49.6 29 -7.3 18.9
13:30 1013 29.91 842 24.86 10.3 50.6 27 -7.7 18.2
13:35 1013 29.91 842 24.86 10.8 51.4 28 -7.2 19
13:40 1013 29.91 842 24.86 10.6 51 27 -7.6 18.4
13:45 1013 29.91 842 24.86 10.5 51 27 -7.7 18.2
13:50 1013 29.91 842 24.86 9.3 48.8 30 -7.3 18.8
13:55 1013 29.91 842 24.86 8.9 48.1 32 -6.9 19.6
14:00 1013 29.91 842 24.86 8.9 48 33 -6.5 20.2
14:05 1012 29.88 842 24.86 8.8 47.8 27 -9.3 15.3
14:10 1012 29.88 841 24.83 9.2 48.6 26 -9.2 15.4
14:15 1012 29.88 841 24.83 9.7 49.4 24 -9.9 14.1
14:20 1012 29.88 841 24.83 9.6 49.3 24 -10.2 13.6
14:25 1012 29.88 841 24.83 9.5 49.2 23 -10.7 12.8
14:30 1012 29.88 841 24.83 9.8 49.7 23 -10.5 13.1
14:35 1012 29.88 841 24.83 10 50 24 -9.9 14.1
14:40 1012 29.88 841 24.83 10 50 22 -10.6 13
14:45 1012 29.88 841 24.83 10.1 50.1 24 -9.8 14.3
14:50 1012 29.88 841 24.83 10.1 50.1 20 -11.7 11
14:55 1011 29.85 841 24.83 10.5 50.9 20 -11.5 11.3
15:00 1011 29.85 841 24.83 10.3 50.6 21 -11.2 11.9
15:05 1011 29.85 840 24.81 10.7 51.2 21 -10.9 12.3
15:10 1011 29.85 840 24.81 10.7 51.3 20 -11.4 11.5
15:15 1011 29.85 840 24.81 10.8 51.5 19 -12.2 10.1
15:20 1011 29.85 840 24.81 10.4 50.6 21 -11.3 11.7
15:25 1011 29.85 840 24.81 10.5 51 19 -12.2 10
15:30 1011 29.85 840 24.81 10.5 51 20 -11.3 11.7
15:35 1011 29.85 840 24.81 10.8 51.4 22 -10.3 13.5
15:40 1011 29.85 840 24.81 10.7 51.2 23 -9.7 14.6
15:45 1011 29.85 840 24.81 10.7 51.2 24 -9.2 15.4
15:50 1011 29.85 840 24.81 10.7 51.3 24 -9.1 15.7
15:55 1011 29.85 840 24.81 10.4 50.6 23 -9.9 14.2
16:00 1011 29.85 840 24.81 10.2 50.4 23 -10.2 13.7
16:05 1011 29.85 840 24.81 10 50 22 -10.5 13.1
16:10 1011 29.85 840 24.81 9.8 49.6 23 -10.6 12.9
16:15 1011 29.85 840 24.81 9.5 49.1 24 -10.3 13.5
16:20 1011 29.85 840 24.81 9.6 49.2 23 -10.7 12.7
16:25 1011 29.85 840 24.81 9.6 49.3 21 -11.7 10.9
16:30 1010 29.83 840 24.81 9.4 49 22 -11.4 11.4
16:35 1010 29.83 840 24.81 9.5 49.2 23 -10.7 12.8
16:40 1010 29.83 840 24.81 9.7 49.4 23 -10.7 12.7
16:45 1010 29.83 839 24.78 9.5 49 23 -10.8 12.5
16:50 1010 29.83 839 24.78 9.4 48.9 24 -10.4 13.2
16:55 1010 29.83 839 24.78 9.4 48.8 24 -10.3 13.5
17:00 1010 29.83 839 24.78 9.3 48.8 24 -10.4 13.3
17:05 1010 29.83 839 24.78 9.3 48.8 24 -10.1 13.8
17:10 1010 29.83 839 24.78 9.3 48.7 25 -9.8 14.3
17:15 1010 29.83 839 24.78 9.3 48.8 25 -9.6 14.7
17:20 1010 29.83 839 24.78 9.3 48.7 26 -9.3 15.3
17:25 1010 29.83 839 24.78 9.3 48.7 26 -9.3 15.3
17:30 1010 29.83 839 24.78 9.2 48.5 26 -9.2 15.5
17:35 1009 29.8 839 24.78 9.2 48.6 26 -9.1 15.6
17:40 1009 29.8 839 24.78 9.2 48.6 27 -9 15.9
17:45 1009 29.8 839 24.78 9.1 48.4 26 -9.2 15.4
17:50 1009 29.8 839 24.78 9 48.1 28 -8.6 16.5
17:55 1009 29.8 839 24.78 8.5 47.3 31 -7.5 18.5
18:00 1009 29.8 839 24.78 8 46.4 33 -7.4 18.7
18:05 1009 29.8 838 24.75 7.9 46.1 32 -7.7 18.1
18:10 1009 29.8 838 24.75 7.9 46.1 31 -8.1 17.4
18:15 1009 29.8 838 24.75 7.7 45.9 33 -7.6 18.3
18:20 1009 29.8 838 24.75 7.8 46 31 -8.2 17.3
18:25 1009 29.8 838 24.75 7.9 46.2 31 -8.4 16.9
18:30 1009 29.8 838 24.75 8.3 46.9 28 -9.1 15.5
18:35 1009 29.8 838 24.75 8.5 47.2 30 -8 17.5
18:40 1009 29.8 838 24.75 8 46.5 31 -8.1 17.4
18:45 1009 29.8 838 24.75 8 46.4 30 -8.5 16.8
18:50 1009 29.8 838 24.75 8 46.4 30 -8.7 16.4
18:55 1009 29.8 838 24.75 7.9 46.3 28 -9.4 15.1
19:00 1009 29.8 838 24.75 8.2 46.7 30 -8.4 17
19:05 1009 29.8 838 24.75 7.9 46.3 31 -8.2 17.3
19:10 1009 29.8 838 24.75 7.8 46.1 31 -8.2 17.3
19:15 1009 29.8 838 24.75 7.8 46 33 -7.6 18.3
19:20 1009 29.8 838 24.75 7.6 45.7 33 -7.5 18.4
19:25 1009 29.8 838 24.75 7.4 45.2 35 -7.3 18.9
19:30 1009 29.8 838 24.75 7.2 44.9 34 -7.6 18.3
19:35 1009 29.8 838 24.75 7.2 45 34 -7.5 18.6
19:40 1009 29.8 838 24.75 7.1 44.8 35 -7.3 18.9
19:45 1009 29.8 838 24.75 6.9 44.5 35 -7.5 18.5
19:50 1008 29.77 838 24.75 7 44.6 34 -7.9 17.9
19:55 1008 29.77 838 24.75 7.1 44.7 34 -7.6 18.2
20:00 1008 29.77 837 24.72 7 44.6 34 -7.7 18.1
20:05 1008 29.77 837 24.72 6.8 44.2 38 -6.5 20.3
20:10 1008 29.77 837 24.72 6.1 43 41 -6.2 20.8
20:15 1008 29.77 837 24.72 5.8 42.4 42 -6.1 21
20:20 1008 29.77 837 24.72 5.5 41.8 42 -6.4 20.5
20:25 1008 29.77 837 24.72 5.4 41.7 43 -6.2 20.8
20:30 1008 29.77 837 24.72 5.2 41.4 41 -6.9 19.6
20:35 1008 29.77 837 24.72 5.3 41.5 40 -7.1 19.2
20:40 1008 29.77 837 24.72 5.4 41.7 39 -7.5 18.4
20:45 1008 29.77 837 24.72 5.5 41.9 36 -8.3 17.1
20:50 1007 29.74 837 24.72 5.7 42.2 36 -8.3 17.1
20:55 1007 29.74 837 24.72 5.8 42.4 35 -8.5 16.7
21:00 1007 29.74 836 24.69 6 42.8 34 -8.6 16.4
21:05 1007 29.74 836 24.69 6 42.8 35 -8.2 17.3
21:10 1007 29.74 836 24.69 5.9 42.7 36 -8.2 17.3
21:15 1007 29.74 836 24.69 5.9 42.6 36 -8.1 17.4
21:20 1007 29.74 836 24.69 6 42.8 36 -8 17.7
21:25 1007 29.74 836 24.69 6 42.8 36 -8 17.5
21:30 1007 29.74 836 24.69 6.1 43 36 -7.9 17.7
21:35 1007 29.74 836 24.69 6 42.8 36 -8 17.6
21:40 1007 29.74 836 24.69 6.1 43 37 -7.6 18.3
21:45 1006 29.71 836 24.69 6.4 43.4 36 -7.5 18.5
21:50 1006 29.71 836 24.69 6.5 43.6 35 -8 17.5
21:55 1006 29.71 835 24.66 6.6 43.8 34 -8.1 17.4
22:00 1006 29.71 835 24.66 6.7 44 33 -8.4 16.8
22:05 1006 29.71 835 24.66 6.7 44.1 34 -8.1 17.5
22:10 1006 29.71 835 24.66 6.3 43.4 38 -7.1 19.2
22:15 1006 29.71 835 24.66 6 42.8 40 -6.6 20
22:20 1006 29.71 835 24.66 6.1 43 37 -7.4 18.7
22:25 1006 29.71 835 24.66 6.3 43.3 38 -6.9 19.6
22:30 1006 29.71 835 24.66 6.3 43.3 39 -6.8 19.7
22:35 1006 29.71 835 24.66 6.3 43.3 37 -7.4 18.7
22:40 1006 29.71 835 24.66 6.8 44.2 35 -7.5 18.5
22:45 1005 29.68 835 24.66 6.8 44.3 35 -7.5 18.5
22:50 1005 29.68 835 24.66 6.7 44.1 36 -7.4 18.7
22:55 1005 29.68 834 24.63 6.4 43.6 37 -7.4 18.7
23:00 1005 29.68 834 24.63 6.3 43.3 37 -7.3 18.8
23:05 1005 29.68 834 24.63 6.2 43.2 37 -7.4 18.6
23:10 1005 29.68 834 24.63 6.2 43.1 37 -7.3 18.8
23:15 1005 29.68 834 24.63 6.1 43 37 -7.3 18.8
23:20 1005 29.68 834 24.63 6.2 43.1 38 -7 19.3
23:25 1005 29.68 834 24.63 6.1 43.1 38 -7 19.5
23:30 1005 29.68 834 24.63 6 42.7 38 -7.2 19.1
23:35 1005 29.68 834 24.63 6 42.7 40 -6.8 19.8
23:40 1005 29.68 834 24.63 5.9 42.7 40 -6.7 20
23:45 1005 29.68 834 24.63 6.4 43.5 37 -7.1 19.3
23:50 1005 29.68 834 24.63 7.1 44.7 37 -6.7 19.9
23:55 1005 29.68 834 24.63 6.8 44.2 40 -5.9 21.4
24:00 1005 29.68 834 24.63 6.5 43.7 40 -6.1 21